Time;durP1;ratioP1;P1;durP2;ratioP2;P2;SDS_P1;SDS_P2;PMS_P1;PMS_P2;Temp;Humidity;BMP_temperature;BMP_pressure;BME280_temperature;BME280_humidity;BME280_pressure;Samples;Min_cycle;Max_cycle;Signal;HPM_P1;HPM_P2
2023/03/23 00:00:58;;;;;;;;;6.00;6.00;;;;;;;;5035744;29;8809;-67
2023/03/23 00:03:31;;;;;;;;;8.20;8.20;;;;;;;;5051462;29;9530;-68
2023/03/23 00:06:20;;;;;;;;;17.00;16.00;;;;;;;;5054104;29;9538;-67
2023/03/23 00:08:56;;;;;;;;;5.80;5.80;;;;;;;;5067547;29;8842;-68
2023/03/23 00:11:29;;;;;;;;;8.20;8.20;;;;;;;;5051493;29;8805;-66
2023/03/23 00:14:00;;;;;;;;;4.80;4.80;;;;;;;;5035796;29;8846;-64
2023/03/23 00:16:33;;;;;;;;;5.20;5.20;;;;;;;;5020375;29;8860;-67
2023/03/23 00:19:05;;;;;;;;;6.00;6.00;;;;;;;;5051083;29;8816;-67
2023/03/23 00:21:38;;;;;;;;;6.40;6.40;;;;;;;;5066534;29;8836;-67
2023/03/23 00:24:15;;;;;;;;;8.40;8.40;;;;;;;;5051022;29;8785;-67
2023/03/23 00:26:48;;;;;;;;;6.40;6.40;;;;;;;;5051175;29;8932;-67
2023/03/23 00:29:21;;;;;;;;;1.00;1.00;;;;;;;;5035859;29;8872;-67
2023/03/23 00:31:56;;;;;;;;;4.20;4.20;;;;;;;;5035046;29;8959;-67
2023/03/23 00:34:33;;;;;;;;;5.60;5.20;;;;;;;;5035087;29;8844;-67
2023/03/23 00:37:04;;;;;;;;;5.40;5.40;;;;;;;;5067037;29;8969;-67
2023/03/23 00:39:38;;;;;;;;;0.80;0.80;;;;;;;;5067646;29;9680;-67
2023/03/23 00:42:09;;;;;;;;;4.20;4.20;;;;;;;;5067100;29;8826;-67
2023/03/23 00:44:40;;;;;;;;;5.80;5.80;;;;;;;;5050827;29;8786;-67
2023/03/23 00:47:12;;;;;;;;;5.60;5.00;;;;;;;;5067220;29;8852;-67
2023/03/23 00:50:02;;;;;;;;;5.60;5.20;;;;;;;;5053463;29;8790;-67
2023/03/23 00:52:33;;;;;;;;;5.00;5.00;;;;;;;;5067072;29;8794;-67
2023/03/23 00:55:05;;;;;;;;;6.00;6.00;;;;;;;;5066957;29;8950;-67
2023/03/23 00:57:36;;;;;;;;;8.80;8.80;;;;;;;;5050203;29;8818;-67
2023/03/23 01:00:10;;;;;;;;;5.20;5.20;;;;;;;;5034698;29;8797;-67
2023/03/23 01:02:44;;;;;;;;;4.00;4.00;;;;;;;;5050411;29;8802;-64
2023/03/23 01:05:15;;;;;;;;;6.40;6.40;;;;;;;;5067224;29;8782;-64
2023/03/23 01:07:46;;;;;;;;;2.80;2.80;;;;;;;;5034535;29;8877;-66
2023/03/23 01:10:17;;;;;;;;;6.20;4.20;;;;;;;;5050017;29;8816;-64
2023/03/23 01:12:48;;;;;;;;;9.00;9.00;;;;;;;;5034988;29;8789;-64
2023/03/23 01:15:20;;;;;;;;;8.20;8.20;;;;;;;;5049974;29;8821;-64
2023/03/23 01:18:10;;;;;;;;;0.80;0.80;;;;;;;;5052783;29;8790;-66
2023/03/23 01:20:42;;;;;;;;;6.00;5.60;;;;;;;;5034249;29;8821;-67
2023/03/23 01:23:13;;;;;;;;;2.40;2.40;;;;;;;;5050065;29;8797;-67
2023/03/23 01:25:45;;;;;;;;;5.00;5.00;;;;;;;;5049923;29;8833;-67
2023/03/23 01:28:16;;;;;;;;;4.80;4.80;;;;;;;;5066698;29;8816;-67
2023/03/23 01:30:47;;;;;;;;;7.20;7.20;;;;;;;;5049320;29;8798;-67
2023/03/23 01:33:18;;;;;;;;;4.80;4.80;;;;;;;;5049881;29;8789;-67
2023/03/23 01:35:49;;;;;;;;;4.00;4.00;;;;;;;;5066323;29;9661;-67
2023/03/23 01:38:38;;;;;;;;;3.60;3.60;;;;;;;;5036589;29;11450;-68
2023/03/23 01:41:29;;;;;;;;;5.00;5.00;;;;;;;;5046755;29;8831;-67
2023/03/23 01:44:07;;;;;;;;;4.00;3.60;;;;;;;;5045995;29;8858;-67
2023/03/23 01:46:47;;;;;;;;;1.00;1.00;;;;;;;;5030303;29;8880;-66
2023/03/23 01:49:25;;;;;;;;;4.20;4.20;;;;;;;;5030481;29;8822;-66
2023/03/23 01:51:57;;;;;;;;;0.40;0.40;;;;;;;;5047017;29;8834;-67
2023/03/23 01:54:29;;;;;;;;;5.40;4.80;;;;;;;;5029680;29;8840;-67
2023/03/23 01:57:04;;;;;;;;;5.80;5.80;;;;;;;;5045455;29;9677;-67
2023/03/23 01:59:55;;;;;;;;;2.00;2.00;;;;;;;;5046292;29;8802;-67
2023/03/23 02:02:35;;;;;;;;;1.00;1.00;;;;;;;;5030883;29;8811;-67
2023/03/23 02:05:28;;;;;;;;;5.00;5.00;;;;;;;;5032606;29;9532;-67
2023/03/23 02:08:02;;;;;;;;;5.00;5.00;;;;;;;;5029739;29;8802;-67
2023/03/23 02:10:37;;;;;;;;;7.60;7.60;;;;;;;;5014361;29;8905;-68
2023/03/23 02:13:09;;;;;;;;;5.20;5.20;;;;;;;;5029951;29;8825;-68
2023/03/23 02:15:46;;;;;;;;;7.20;7.20;;;;;;;;5029510;29;9547;-67
2023/03/23 02:18:29;;;;;;;;;8.60;8.60;;;;;;;;5029840;29;8808;-64
2023/03/23 02:21:06;;;;;;;;;9.00;9.00;;;;;;;;5014254;29;8824;-65
2023/03/23 02:23:47;;;;;;;;;4.40;4.40;;;;;;;;5029642;29;8824;-65
2023/03/23 02:26:18;;;;;;;;;13.40;13.40;;;;;;;;5029996;29;9622;-65
2023/03/23 02:29:07;;;;;;;;;12.40;12.40;;;;;;;;5013658;29;8834;-64
2023/03/23 02:31:42;;;;;;;;;12.40;12.20;;;;;;;;4999804;29;8808;-65
2023/03/23 02:34:19;;;;;;;;;13.40;13.40;;;;;;;;5029434;29;8929;-65
2023/03/23 02:36:53;;;;;;;;;20.60;20.20;;;;;;;;5029385;29;8832;-65
2023/03/23 02:39:26;;;;;;;;;15.20;14.40;;;;;;;;5029186;29;8812;-65
2023/03/23 02:42:07;;;;;;;;;13.20;12.20;;;;;;;;5029619;29;8812;-65
2023/03/23 02:44:42;;;;;;;;;25.80;23.20;;;;;;;;5029179;29;8834;-68
2023/03/23 02:47:19;;;;;;;;;19.40;19.40;;;;;;;;5029752;29;8886;-65
2023/03/23 02:49:53;;;;;;;;;20.40;19.40;;;;;;;;5046018;29;8818;-68
2023/03/23 02:52:26;;;;;;;;;25.80;24.40;;;;;;;;5029431;29;8814;-68
2023/03/23 02:55:01;;;;;;;;;26.20;25.40;;;;;;;;5015475;29;8806;-68
2023/03/23 02:57:33;;;;;;;;;21.40;20.80;;;;;;;;5029429;29;8857;-68
2023/03/23 03:00:10;;;;;;;;;27.80;27.20;;;;;;;;5028918;29;8821;-68
2023/03/23 03:02:43;;;;;;;;;24.60;23.40;;;;;;;;5028267;29;9046;-68
2023/03/23 03:05:40;;;;;;;;;23.60;23.60;;;;;;;;5045962;29;8833;-68
2023/03/23 03:08:15;;;;;;;;;18.60;18.60;;;;;;;;5012965;29;8822;-69
2023/03/23 03:11:04;;;;;;;;;32.80;29.80;;;;;;;;5030972;29;8865;-68
2023/03/23 03:13:42;;;;;;;;;20.20;20.20;;;;;;;;5028594;29;8822;-68
2023/03/23 03:16:13;;;;;;;;;17.00;15.20;;;;;;;;5045734;29;8850;-65
2023/03/23 03:19:03;;;;;;;;;13.25;13.25;;;;;;;;5028878;29;8798;-68
2023/03/23 03:21:54;;;;;;;;;10.80;10.80;;;;;;;;5029350;29;9581;-68
2023/03/23 03:24:31;;;;;;;;;12.00;11.80;;;;;;;;4998552;29;9013;-68
2023/03/23 03:27:05;;;;;;;;;12.00;12.00;;;;;;;;5028410;29;8930;-68
2023/03/23 03:29:50;;;;;;;;;9.00;9.00;;;;;;;;5014594;29;8806;-68
2023/03/23 03:32:24;;;;;;;;;12.80;12.80;;;;;;;;5028912;29;8889;-68
2023/03/23 03:34:56;;;;;;;;;13.00;12.40;;;;;;;;5013618;29;8810;-68
2023/03/23 03:37:27;;;;;;;;;21.20;20.60;;;;;;;;5028455;29;8843;-68
2023/03/23 03:40:00;;;;;;;;;16.40;16.40;;;;;;;;5028364;29;8810;-75
2023/03/23 03:42:51;;;;;;;;;13.60;13.40;;;;;;;;5015893;29;8829;-75
2023/03/23 03:45:24;;;;;;;;;5.60;5.60;;;;;;;;4998198;29;9557;-75
2023/03/23 03:48:15;;;;;;;;;14.20;14.20;;;;;;;;5022752;29;8822;-75
2023/03/23 03:50:51;;;;;;;;;165.33;121.33;;;;;;;;4997071;29;8963;-76
2023/03/23 03:53:24;;;;;;;;;23.20;22.40;;;;;;;;5031042;29;10121;-76
2023/03/23 03:55:59;;;;;;;;;10.40;9.80;;;;;;;;5027353;29;8878;-76
2023/03/23 03:58:51;;;;;;;;;12.20;12.20;;;;;;;;5035390;29;8925;-76
2023/03/23 04:01:53;;;;;;;;;11.20;10.40;;;;;;;;5032245;29;8837;-75
2023/03/23 04:04:27;;;;;;;;;11.00;11.00;;;;;;;;5017267;29;8798;-75
2023/03/23 04:06:59;;;;;;;;;10.60;10.60;;;;;;;;5032853;29;9533;-75
2023/03/23 04:09:31;;;;;;;;;5.60;5.40;;;;;;;;5032677;29;8848;-75
2023/03/23 04:12:04;;;;;;;;;5.60;5.60;;;;;;;;5017727;29;8836;-75
2023/03/23 04:14:56;;;;;;;;;10.00;9.40;;;;;;;;5035297;29;8853;-74
2023/03/23 04:17:35;;;;;;;;;10.40;10.40;;;;;;;;5033448;29;8858;-75
2023/03/23 04:20:17;;;;;;;;;14.80;13.80;;;;;;;;5033239;29;8833;-75
2023/03/23 04:22:54;;;;;;;;;55.00;43.40;;;;;;;;5016318;29;8847;-75
2023/03/23 04:25:46;;;;;;;;;1.60;0.60;;;;;;;;5030455;29;8845;-74
2023/03/23 04:28:23;;;;;;;;;10.40;10.40;;;;;;;;5034332;29;8817;-75
2023/03/23 04:31:28;;;;;;;;;10.00;10.00;;;;;;;;5017179;29;8921;-75
2023/03/23 04:34:20;;;;;;;;;9.40;9.40;;;;;;;;5037150;29;8801;-74
2023/03/23 04:36:58;;;;;;;;;5.40;5.40;;;;;;;;5035148;29;8833;-74
2023/03/23 04:39:34;;;;;;;;;8.00;7.40;;;;;;;;5020323;29;8848;-74
2023/03/23 04:42:09;;;;;;;;;6.00;6.00;;;;;;;;5036051;29;8854;-75
2023/03/23 04:45:21;;;;;;;;;9.00;9.00;;;;;;;;5025978;29;8959;-75
2023/03/23 04:48:01;;;;;;;;;11.00;11.00;;;;;;;;5016270;29;8820;-74
2023/03/23 04:50:44;;;;;;;;;6.80;6.80;;;;;;;;5017596;29;8824;-75
2023/03/23 04:53:26;;;;;;;;;6.20;6.20;;;;;;;;5031133;29;8851;-70
2023/03/23 04:55:57;;;;;;;;;3.40;3.40;;;;;;;;5046791;29;8919;-70
2023/03/23 04:58:33;;;;;;;;;8.20;8.20;;;;;;;;5042511;29;8893;-70
2023/03/23 05:01:31;;;;;;;;;10.60;10.40;;;;;;;;5062136;29;8862;-70
2023/03/23 05:04:16;;;;;;;;;9.60;9.60;;;;;;;;5048353;29;8829;-70
2023/03/23 05:06:52;;;;;;;;;9.00;9.00;;;;;;;;5048619;29;8841;-70
2023/03/23 05:09:32;;;;;;;;;15.60;15.60;;;;;;;;5047427;29;9553;-70
2023/03/23 05:12:04;;;;;;;;;6.40;6.40;;;;;;;;5048240;29;9592;-71
2023/03/23 05:14:53;;;;;;;;;9.80;9.60;;;;;;;;5065141;29;9675;-70
2023/03/23 05:17:29;;;;;;;;;5.20;5.20;;;;;;;;5048076;29;8837;-70
2023/03/23 05:20:07;;;;;;;;;8.80;8.20;;;;;;;;5033377;29;8897;-69
2023/03/23 05:22:57;;;;;;;;;12.00;12.00;;;;;;;;5063686;29;9565;-69
2023/03/23 05:25:39;;;;;;;;;11.20;11.20;;;;;;;;5048098;29;9548;-70
2023/03/23 05:28:23;;;;;;;;;11.80;11.00;;;;;;;;5048034;29;9694;-69
2023/03/23 05:31:18;;;;;;;;;10.20;10.20;;;;;;;;5057021;29;8972;-70
2023/03/23 05:33:49;;;;;;;;;13.20;13.20;;;;;;;;5048185;29;8841;-70
2023/03/23 05:36:37;;;;;;;;;14.00;14.00;;;;;;;;5064188;29;8934;-70
2023/03/23 05:39:27;;;;;;;;;18.60;18.40;;;;;;;;5064592;29;8821;-71
2023/03/23 05:42:22;;;;;;;;;18.80;18.20;;;;;;;;5056652;29;8826;-71
2023/03/23 05:45:00;;;;;;;;;23.40;22.20;;;;;;;;5047729;29;8954;-71
2023/03/23 05:47:32;;;;;;;;;13.00;12.60;;;;;;;;5031983;29;8881;-71
2023/03/23 05:50:09;;;;;;;;;11.80;11.00;;;;;;;;5047920;29;9627;-71
2023/03/23 05:52:41;;;;;;;;;10.80;10.20;;;;;;;;5032277;29;8843;-71
2023/03/23 05:55:15;;;;;;;;;7.80;7.80;;;;;;;;5047291;29;8842;-70
2023/03/23 05:57:52;;;;;;;;;9.20;9.20;;;;;;;;5032819;29;8830;-70
2023/03/23 06:00:38;;;;;;;;;8.80;8.80;;;;;;;;5047282;29;8913;-70
2023/03/23 06:03:23;;;;;;;;;8.40;8.40;;;;;;;;5047973;29;8841;-70
2023/03/23 06:06:13;;;;;;;;;7.20;7.20;;;;;;;;5047817;29;8833;-70
2023/03/23 06:08:56;;;;;;;;;10.40;10.20;;;;;;;;5047244;29;8842;-70
2023/03/23 06:11:39;;;;;;;;;9.40;9.40;;;;;;;;5033158;29;8904;-70
2023/03/23 06:14:39;;;;;;;;;7.00;6.60;;;;;;;;5012039;29;8833;-70
2023/03/23 06:17:11;;;;;;;;;8.40;8.40;;;;;;;;5042639;29;8870;-71
2023/03/23 06:19:43;;;;;;;;;11.00;11.00;;;;;;;;5047147;29;8845;-70
2023/03/23 06:22:34;;;;;;;;;6.80;6.80;;;;;;;;5051160;29;8814;-71
2023/03/23 06:25:15;;;;;;;;;9.60;9.60;;;;;;;;5049639;29;8817;-70
2023/03/23 06:27:48;;;;;;;;;10.20;10.20;;;;;;;;5047955;29;8848;-70
2023/03/23 06:30:19;;;;;;;;;9.40;9.40;;;;;;;;5065161;29;9562;-71
2023/03/23 06:32:50;;;;;;;;;8.00;8.00;;;;;;;;5048479;29;8830;-71
2023/03/23 06:35:28;;;;;;;;;6.20;5.80;;;;;;;;5041206;29;9599;-71
2023/03/23 06:38:26;;;;;;;;;5.80;5.80;;;;;;;;5068201;29;8819;-71
2023/03/23 06:40:59;;;;;;;;;6.60;6.60;;;;;;;;5068088;29;8811;-70
2023/03/23 06:43:35;;;;;;;;;2.00;2.00;;;;;;;;5068020;29;8837;-71
2023/03/23 06:46:17;;;;;;;;;3.20;3.00;;;;;;;;5081709;29;8819;-71
2023/03/23 06:49:06;;;;;;;;;3.00;3.00;;;;;;;;5051427;29;8848;-71
2023/03/23 06:51:48;;;;;;;;;3.80;3.80;;;;;;;;5019338;29;8821;-70
2023/03/23 06:54:20;;;;;;;;;14.00;14.00;;;;;;;;5048611;29;9552;-70
2023/03/23 06:56:51;;;;;;;;;6.40;6.40;;;;;;;;5048501;29;10827;-70
2023/03/23 06:59:22;;;;;;;;;2.80;2.80;;;;;;;;5048378;29;8823;-70
2023/03/23 07:01:53;;;;;;;;;4.00;4.00;;;;;;;;5065179;29;8836;-70
2023/03/23 07:04:43;;;;;;;;;3.40;3.40;;;;;;;;5062510;29;8819;-70
2023/03/23 07:07:32;;;;;;;;;6.75;6.75;;;;;;;;5047413;29;8842;-72
2023/03/23 07:10:19;;;;;;;;;3.50;3.50;;;;;;;;5037488;29;8836;-73
2023/03/23 07:12:50;;;;;;;;;6.20;6.20;;;;;;;;5044456;29;8805;-70
2023/03/23 07:15:22;;;;;;;;;2.40;2.40;;;;;;;;5051302;29;8894;-70
2023/03/23 07:17:56;;;;;;;;;3.00;3.00;;;;;;;;5032155;29;8839;-71
2023/03/23 07:20:35;;;;;;;;;8.00;7.80;;;;;;;;5064522;29;8841;-71
2023/03/23 07:23:07;;;;;;;;;6.20;6.20;;;;;;;;5047313;29;8825;-71
2023/03/23 07:25:48;;;;;;;;;7.00;7.00;;;;;;;;5063776;29;8844;-71
2023/03/23 07:28:26;;;;;;;;;6.60;6.20;;;;;;;;5048070;29;9540;-71
2023/03/23 07:31:00;;;;;;;;;1.00;1.00;;;;;;;;5048654;29;8808;-71
2023/03/23 07:33:31;;;;;;;;;8.00;8.00;;;;;;;;5035878;29;8858;-70
2023/03/23 07:36:03;;;;;;;;;6.00;6.00;;;;;;;;5051940;29;8873;-70
2023/03/23 07:38:34;;;;;;;;;3.00;3.00;;;;;;;;5051865;29;8808;-71
2023/03/23 07:41:06;;;;;;;;;4.50;4.50;;;;;;;;5020935;29;8787;-71
2023/03/23 07:43:37;;;;;;;;;4.00;4.00;;;;;;;;5020846;29;8805;-70
2023/03/23 07:46:25;;;;;;;;;4.00;4.00;;;;;;;;5036840;29;8844;-71
2023/03/23 07:49:18;;;;;;;;;4.00;4.00;;;;;;;;5036273;29;8828;-71
2023/03/23 07:52:08;;;;;;;;;8.25;8.25;;;;;;;;5051399;29;8883;-71
2023/03/23 07:54:40;;;;;;;;;6.50;6.50;;;;;;;;5036211;29;8852;-71
2023/03/23 07:57:32;;;;;;;;;7.25;7.25;;;;;;;;5016591;29;8859;-70
2023/03/23 08:00:10;;;;;;;;;6.25;6.25;;;;;;;;5032106;29;8860;-70
2023/03/23 08:02:46;;;;;;;;;3.00;2.75;;;;;;;;5032130;29;9562;-70
2023/03/23 08:05:59;;;;;;;;;5.00;5.00;;;;;;;;5007875;29;9578;-71
2023/03/23 08:08:52;;;;;;;;;8.00;8.00;;;;;;;;5007158;29;8826;-71
2023/03/23 08:11:42;;;;;;;;;5.00;5.00;;;;;;;;5026995;29;8853;-71
2023/03/23 08:14:12;;;;;;;;;5.00;5.00;;;;;;;;5052439;29;8809;-71
2023/03/23 08:17:03;;;;;;;;;11.25;11.25;;;;;;;;5052785;29;11755;-71
2023/03/23 08:19:46;;;;;;;;;8.00;7.75;;;;;;;;5023964;29;8933;-70
2023/03/23 08:22:22;;;;;;;;;7.75;7.75;;;;;;;;5048231;29;8913;-71
2023/03/23 08:25:17;;;;;;;;;3.00;3.00;;;;;;;;5048230;29;9434;-72
2023/03/23 08:28:08;;;;;;;;;7.00;6.50;;;;;;;;5021574;29;8811;-72
2023/03/23 08:30:58;;;;;;;;;11.00;11.00;;;;;;;;5018723;29;9535;-78
2023/03/23 08:33:39;;;;;;;;;9.00;9.00;;;;;;;;5016381;29;8817;-79
2023/03/23 08:36:33;;;;;;;;;7.50;7.50;;;;;;;;5034033;29;8868;-79
2023/03/23 08:39:19;;;;;;;;;10.40;10.40;;;;;;;;5016335;29;8808;-79
2023/03/23 08:42:09;;;;;;;;;11.00;11.00;;;;;;;;5014123;29;8957;-78
2023/03/23 08:44:59;;;;;;;;;16.20;15.80;;;;;;;;5031214;29;8871;-78
2023/03/23 08:47:33;;;;;;;;;18.80;18.80;;;;;;;;5016480;29;8935;-78
2023/03/23 08:50:24;;;;;;;;;54.20;46.60;;;;;;;;5026252;29;8988;-79
2023/03/23 08:53:15;;;;;;;;;56.20;46.60;;;;;;;;5019368;29;9677;-79
2023/03/23 08:55:48;;;;;;;;;66.80;54.20;;;;;;;;5034527;29;8825;-78
2023/03/23 08:58:20;;;;;;;;;43.00;38.60;;;;;;;;5035345;29;8910;-81
2023/03/23 09:00:51;;;;;;;;;51.00;43.80;;;;;;;;5022671;29;8839;-81
2023/03/23 09:03:51;;;;;;;;;33.60;33.60;;;;;;;;4955390;29;8854;-81
2023/03/23 09:06:54;;;;;;;;;55.80;46.40;;;;;;;;5001337;29;8853;-79
2023/03/23 09:09:26;;;;;;;;;69.00;57.00;;;;;;;;5010277;29;8856;-79
2023/03/23 09:11:57;;;;;;;;;49.40;41.80;;;;;;;;5000237;29;8840;-79
2023/03/23 09:14:28;;;;;;;;;62.00;49.00;;;;;;;;5000396;29;8904;-79
2023/03/23 09:17:18;;;;;;;;;81.80;65.60;;;;;;;;5017754;29;8868;-78
2023/03/23 09:19:50;;;;;;;;;17.00;17.00;;;;;;;;5014685;29;8852;-79
2023/03/23 09:22:23;;;;;;;;;62.00;51.40;;;;;;;;5000032;29;8813;-79
2023/03/23 09:24:54;;;;;;;;;68.20;56.40;;;;;;;;5014628;29;9652;-80
2023/03/23 09:27:25;;;;;;;;;55.60;47.40;;;;;;;;4995821;29;8869;-77
2023/03/23 09:29:57;;;;;;;;;64.60;53.00;;;;;;;;5010906;29;8823;-77
2023/03/23 09:32:28;;;;;;;;;79.00;65.60;;;;;;;;4996894;29;8829;-75
2023/03/23 09:35:00;;;;;;;;;28.80;28.80;;;;;;;;4996479;29;8827;-76
2023/03/23 09:37:31;;;;;;;;;61.80;51.60;;;;;;;;5011389;29;8843;-76
2023/03/23 09:40:03;;;;;;;;;60.40;49.40;;;;;;;;5011543;29;8815;-76
2023/03/23 09:42:57;;;;;;;;;78.40;62.20;;;;;;;;4996073;29;8833;-76
2023/03/23 09:45:51;;;;;;;;;77.20;63.20;;;;;;;;4998717;29;8807;-76
2023/03/23 09:48:34;;;;;;;;;75.40;61.20;;;;;;;;5011122;29;8819;-76
2023/03/23 09:51:15;;;;;;;;;86.40;75.40;;;;;;;;5010972;29;8823;-76
2023/03/23 09:53:51;;;;;;;;;86.20;77.60;;;;;;;;5010921;29;8839;-75
2023/03/23 09:56:32;;;;;;;;;55.00;47.40;;;;;;;;4995835;29;8858;-76
2023/03/23 09:59:15;;;;;;;;;68.00;55.20;;;;;;;;5011012;29;8826;-69
2023/03/23 10:01:51;;;;;;;;;73.20;58.60;;;;;;;;5011344;29;8838;-69
2023/03/23 10:04:26;;;;;;;;;59.00;49.40;;;;;;;;5026318;29;8819;-69
2023/03/23 10:07:08;;;;;;;;;75.60;61.00;;;;;;;;5026231;29;9669;-69
2023/03/23 10:09:40;;;;;;;;;86.60;73.80;;;;;;;;5027250;29;8799;-69
2023/03/23 10:12:41;;;;;;;;;33.20;32.80;;;;;;;;5027528;29;8945;-69
2023/03/23 10:15:25;;;;;;;;;9.00;8.80;;;;;;;;5010733;29;9620;-69
2023/03/23 10:18:08;;;;;;;;;16.40;16.40;;;;;;;;5010530;29;8827;-69
2023/03/23 10:20:39;;;;;;;;;36.60;35.20;;;;;;;;5028483;29;8955;-70
2023/03/23 10:23:10;;;;;;;;;16.00;16.00;;;;;;;;5029495;29;8824;-71
2023/03/23 10:25:43;;;;;;;;;12.25;12.25;;;;;;;;5013522;29;8817;-71
2023/03/23 10:28:34;;;;;;;;;10.80;10.80;;;;;;;;5022906;29;11670;-70
2023/03/23 10:31:08;;;;;;;;;4.40;4.40;;;;;;;;5000920;29;8819;-70
2023/03/23 10:33:47;;;;;;;;;4.00;4.00;;;;;;;;5026210;29;8945;-69
2023/03/23 10:36:21;;;;;;;;;1.00;1.00;;;;;;;;5013738;29;8912;-70
2023/03/23 10:39:01;;;;;;;;;5.50;5.50;;;;;;;;5013729;29;8816;-70
2023/03/23 10:41:32;;;;;;;;;3.75;3.75;;;;;;;;4998979;29;8840;-70
2023/03/23 10:44:11;;;;;;;;;5.00;5.00;;;;;;;;5045801;29;8843;-69
2023/03/23 10:46:49;;;;;;;;;3.25;3.25;;;;;;;;5045560;29;8860;-70
2023/03/23 10:49:33;;;;;;;;;5.75;5.75;;;;;;;;5028785;29;8942;-69
2023/03/23 10:52:06;;;;;;;;;8.25;8.00;;;;;;;;5029252;29;8831;-70
2023/03/23 10:54:40;;;;;;;;;9.00;9.00;;;;;;;;5060321;29;8915;-69
2023/03/23 10:57:22;;;;;;;;;16.80;15.80;;;;;;;;5047911;29;8854;-69
2023/03/23 11:00:06;;;;;;;;;8.50;8.50;;;;;;;;5032982;29;8813;-69
2023/03/23 11:02:39;;;;;;;;;5.75;5.75;;;;;;;;5065056;29;9596;-69
2023/03/23 11:05:19;;;;;;;;;4.00;4.00;;;;;;;;5032358;29;8956;-69
2023/03/23 11:07:57;;;;;;;;;4.00;4.00;;;;;;;;5035705;29;8889;-70
2023/03/23 11:10:34;;;;;;;;;3.75;3.75;;;;;;;;5049873;29;8810;-70
2023/03/23 11:13:10;;;;;;;;;4.25;4.25;;;;;;;;5033276;29;9633;-70
2023/03/23 11:15:42;;;;;;;;;8.00;8.00;;;;;;;;5040186;29;8889;-69
2023/03/23 11:18:29;;;;;;;;;3.00;3.00;;;;;;;;5051908;29;8782;-69
2023/03/23 11:21:00;;;;;;;;;3.00;3.00;;;;;;;;5068796;29;8798;-69
2023/03/23 11:23:33;;;;;;;;;4.33;4.33;;;;;;;;5051726;29;8806;-69
2023/03/23 11:26:07;;;;;;;;;2.00;2.00;;;;;;;;5068514;29;8818;-69
2023/03/23 11:28:42;;;;;;;;;4.50;4.50;;;;;;;;5036246;29;8798;-69
2023/03/23 11:31:14;;;;;;;;;4.50;4.50;;;;;;;;5052213;29;8798;-69
2023/03/23 11:33:48;;;;;;;;;3.75;3.75;;;;;;;;5052150;29;8828;-69
2023/03/23 11:36:19;;;;;;;;;2.50;2.50;;;;;;;;5065904;29;8822;-70
2023/03/23 11:38:55;;;;;;;;;3.00;3.00;;;;;;;;5050010;29;8806;-70
2023/03/23 11:41:31;;;;;;;;;2.25;2.25;;;;;;;;5064952;29;9591;-70
2023/03/23 11:44:09;;;;;;;;;8.60;8.60;;;;;;;;5066869;29;8869;-70
2023/03/23 11:46:58;;;;;;;;;4.00;4.00;;;;;;;;5067096;29;9607;-70
2023/03/23 11:49:28;;;;;;;;;2.25;2.00;;;;;;;;5066710;29;8782;-70
2023/03/23 11:52:10;;;;;;;;;3.00;3.00;;;;;;;;5050212;29;8826;-70
2023/03/23 11:54:46;;;;;;;;;3.25;3.25;;;;;;;;5049750;29;9118;-70
2023/03/23 11:57:18;;;;;;;;;4.00;4.00;;;;;;;;5049378;29;8822;-71
2023/03/23 11:59:49;;;;;;;;;3.50;3.50;;;;;;;;5049691;29;8830;-70
2023/03/23 12:02:27;;;;;;;;;3.00;3.00;;;;;;;;5052623;29;8810;-72
2023/03/23 12:05:17;;;;;;;;;3.00;3.00;;;;;;;;5035999;29;8813;-71
2023/03/23 12:08:07;;;;;;;;;5.00;5.00;;;;;;;;5050625;29;8833;-70
2023/03/23 12:10:38;;;;;;;;;14.75;14.75;;;;;;;;5050750;29;8794;-70
2023/03/23 12:13:15;;;;;;;;;10.50;10.50;;;;;;;;5050886;29;8858;-69
2023/03/23 12:15:58;;;;;;;;;4.00;4.00;;;;;;;;5047184;29;8836;-69
2023/03/23 12:18:41;;;;;;;;;3.25;3.25;;;;;;;;5045754;29;8811;-70
2023/03/23 12:21:19;;;;;;;;;9.00;9.00;;;;;;;;5065276;29;8798;-71
2023/03/23 12:23:50;;;;;;;;;6.00;6.00;;;;;;;;5050669;29;8814;-69
2023/03/23 12:26:24;;;;;;;;;2.00;2.00;;;;;;;;5067110;29;8849;-69
2023/03/23 12:28:55;;;;;;;;;1.50;1.50;;;;;;;;5034732;29;8825;-69
2023/03/23 12:31:33;;;;;;;;;3.00;3.00;;;;;;;;5034694;29;8970;-70
2023/03/23 12:34:19;;;;;;;;;4.75;4.75;;;;;;;;5067179;29;8955;-69
2023/03/23 12:37:05;;;;;;;;;3.00;3.00;;;;;;;;5067078;29;8853;-70
2023/03/23 12:39:50;;;;;;;;;5.00;5.00;;;;;;;;5039659;29;8821;-70
2023/03/23 12:42:21;;;;;;;;;4.00;4.00;;;;;;;;5050879;29;8782;-70
2023/03/23 12:45:05;;;;;;;;;4.00;4.00;;;;;;;;5034961;29;9502;-70
2023/03/23 12:47:36;;;;;;;;;8.00;8.00;;;;;;;;5050457;29;8818;-70
2023/03/23 12:50:21;;;;;;;;;8.50;6.75;;;;;;;;5034774;29;8853;-72
2023/03/23 12:53:04;;;;;;;;;11.75;11.25;;;;;;;;5050026;29;8820;-69
2023/03/23 12:56:15;;;;;;;;;5.00;5.00;;;;;;;;5033145;29;8796;-70
2023/03/23 12:58:47;;;;;;;;;9.00;9.00;;;;;;;;5045592;29;9561;-69
2023/03/23 13:01:23;;;;;;;;;9.00;9.00;;;;;;;;5056177;29;9549;-69
2023/03/23 13:03:58;;;;;;;;;5.00;5.00;;;;;;;;5048731;29;9514;-70
2023/03/23 13:06:33;;;;;;;;;4.00;4.00;;;;;;;;5066202;29;8889;-70
2023/03/23 13:09:11;;;;;;;;;4.00;4.00;;;;;;;;5065657;29;8805;-70
2023/03/23 13:11:43;;;;;;;;;11.40;10.40;;;;;;;;5034404;29;8840;-71
2023/03/23 13:14:14;;;;;;;;;5.25;5.25;;;;;;;;5049567;29;8848;-71
2023/03/23 13:16:45;;;;;;;;;5.75;5.75;;;;;;;;5055618;29;8827;-70
2023/03/23 13:19:16;;;;;;;;;4.25;4.25;;;;;;;;5053179;29;8805;-71
2023/03/23 13:22:11;;;;;;;;;6.25;6.25;;;;;;;;5030410;29;8878;-69
2023/03/23 13:24:48;;;;;;;;;18.80;18.40;;;;;;;;5048249;29;9496;-69
2023/03/23 13:27:23;;;;;;;;;24.00;22.60;;;;;;;;5030476;29;8830;-69
2023/03/23 13:30:02;;;;;;;;;11.40;11.40;;;;;;;;5030417;29;8806;-69
2023/03/23 13:32:36;;;;;;;;;9.50;9.50;;;;;;;;5031039;29;9546;-69
2023/03/23 13:35:12;;;;;;;;;3.75;3.75;;;;;;;;5047046;29;8828;-69
2023/03/23 13:37:48;;;;;;;;;5.00;5.00;;;;;;;;5063391;29;8822;-71
2023/03/23 13:40:31;;;;;;;;;5.00;5.00;;;;;;;;5063931;29;9580;-70
2023/03/23 13:43:04;;;;;;;;;13.40;13.40;;;;;;;;5047015;29;8828;-70
2023/03/23 13:45:46;;;;;;;;;6.60;6.60;;;;;;;;5047082;29;8832;-69
2023/03/23 13:48:22;;;;;;;;;7.60;7.60;;;;;;;;5047434;29;9537;-69
2023/03/23 13:50:58;;;;;;;;;7.75;7.75;;;;;;;;5047230;29;8853;-70
2023/03/23 13:53:51;;;;;;;;;1.00;1.00;;;;;;;;5063446;29;8826;-70
2023/03/23 13:56:42;;;;;;;;;7.67;7.67;;;;;;;;5031566;29;8844;-69
2023/03/23 13:59:15;;;;;;;;;4.20;4.20;;;;;;;;5064089;29;8810;-69
2023/03/23 14:01:46;;;;;;;;;11.20;11.20;;;;;;;;5062873;29;8924;-69
2023/03/23 14:04:19;;;;;;;;;9.40;9.40;;;;;;;;5046805;29;8817;-68
2023/03/23 14:06:50;;;;;;;;;8.80;8.80;;;;;;;;5031266;29;9564;-69
2023/03/23 14:09:37;;;;;;;;;9.20;9.20;;;;;;;;5045887;29;8844;-69
2023/03/23 14:12:28;;;;;;;;;5.25;5.25;;;;;;;;5033644;29;8822;-69
2023/03/23 14:15:04;;;;;;;;;4.00;4.00;;;;;;;;5046684;29;8837;-69
2023/03/23 14:17:53;;;;;;;;;5.25;4.00;;;;;;;;5046545;29;8849;-68
2023/03/23 14:20:32;;;;;;;;;7.40;7.40;;;;;;;;5047209;29;8872;-68
2023/03/23 14:23:03;;;;;;;;;11.00;11.00;;;;;;;;5063525;29;8809;-68
2023/03/23 14:25:34;;;;;;;;;7.00;7.00;;;;;;;;5046252;29;8910;-68
2023/03/23 14:28:16;;;;;;;;;3.00;3.00;;;;;;;;5046268;29;10008;-69
2023/03/23 14:30:48;;;;;;;;;5.00;5.00;;;;;;;;5046959;29;8802;-69
2023/03/23 14:33:19;;;;;;;;;4.00;4.00;;;;;;;;5063538;29;8802;-68
2023/03/23 14:35:50;;;;;;;;;6.40;6.40;;;;;;;;5042621;29;9423;-71
2023/03/23 14:38:24;;;;;;;;;6.80;6.80;;;;;;;;5051559;29;9534;-71
2023/03/23 14:40:59;;;;;;;;;4.00;4.00;;;;;;;;5062313;29;8825;-69
2023/03/23 14:43:33;;;;;;;;;4.60;4.60;;;;;;;;5062600;29;9604;-70
2023/03/23 14:46:06;;;;;;;;;4.00;4.00;;;;;;;;5062959;29;8846;-69
2023/03/23 14:48:38;;;;;;;;;6.00;6.00;;;;;;;;5060826;29;8830;-69
2023/03/23 14:51:16;;;;;;;;;3.20;3.20;;;;;;;;5059891;29;8810;-69
2023/03/23 14:53:47;;;;;;;;;3.80;3.80;;;;;;;;5060995;29;9000;-69
2023/03/23 14:56:22;;;;;;;;;5.00;5.00;;;;;;;;5051437;29;8844;-69
2023/03/23 14:59:12;;;;;;;;;7.20;6.60;;;;;;;;5041280;29;8817;-69
2023/03/23 15:01:44;;;;;;;;;6.00;5.50;;;;;;;;5053846;29;8813;-69
2023/03/23 15:04:17;;;;;;;;;24.80;22.60;;;;;;;;5064587;29;11548;-69
2023/03/23 15:06:51;;;;;;;;;8.40;8.40;;;;;;;;5046164;29;8824;-72
2023/03/23 15:09:23;;;;;;;;;7.00;5.80;;;;;;;;5042551;29;8824;-71
2023/03/23 15:12:20;;;;;;;;;10.00;10.00;;;;;;;;5045889;29;8804;-69
2023/03/23 15:14:52;;;;;;;;;8.00;8.00;;;;;;;;5037295;29;8896;-70
2023/03/23 15:17:25;;;;;;;;;13.20;13.20;;;;;;;;5064672;29;8805;-69
2023/03/23 15:19:58;;;;;;;;;50.00;41.60;;;;;;;;5064144;29;9645;-68
2023/03/23 15:22:29;;;;;;;;;7.60;7.60;;;;;;;;5048151;29;9521;-69
2023/03/23 15:25:19;;;;;;;;;9.60;9.60;;;;;;;;5047958;29;8805;-69
2023/03/23 15:28:27;;;;;;;;;13.60;13.60;;;;;;;;5064533;29;8916;-69
2023/03/23 15:31:04;;;;;;;;;13.60;13.60;;;;;;;;5029253;29;8822;-69
2023/03/23 15:33:39;;;;;;;;;19.60;19.60;;;;;;;;5043412;29;8980;-70
2023/03/23 15:36:17;;;;;;;;;20.80;18.60;;;;;;;;5047473;29;9530;-69
2023/03/23 15:39:09;;;;;;;;;24.80;23.40;;;;;;;;5064495;29;8775;-70
2023/03/23 15:41:48;;;;;;;;;23.00;21.20;;;;;;;;5064847;29;8797;-69
2023/03/23 15:44:33;;;;;;;;;12.40;12.40;;;;;;;;5047544;29;8778;-70
2023/03/23 15:47:18;;;;;;;;;15.80;15.00;;;;;;;;5047695;29;8833;-70
2023/03/23 15:49:58;;;;;;;;;15.80;15.80;;;;;;;;5046754;29;9001;-69
2023/03/23 15:52:30;;;;;;;;;19.40;19.40;;;;;;;;5049177;29;8791;-69
2023/03/23 15:55:01;;;;;;;;;21.40;15.80;;;;;;;;5068082;29;8830;-68